Flight Track Log - Related Links

Times and Time Zones

All times are in EDT time to prevent confusion due to time zone crossing. See the DAL1475 flight status page for this flight to view local times or setup timezone preferences in your user account.

Time Position Orientation Groundspeed Altitude Reporting Facility
EDT Latitude Longitude Course Direction KTS MPH feet Rate Location/Type
Thu 04:41:41 PM 33.6206 -84.3481 140° Southeast 438 504 3,500  Level Atlanta Center
Thu 04:42:32 PM 33.6000 -84.2833 111° Southeast 263 303 5,600 2,703 Climbing Atlanta TRACON
Thu 04:43:00 PM 33.4067 -84.2667 180° South  Level FlightAware Approximate
Thu 04:43:32 PM 33.5167 -84.2833 180° South 274 315 8,500  Level Atlanta TRACON
Thu 04:44:00 PM 33.3176 -84.2008 140° Southeast  Level FlightAware Approximate
Thu 04:45:00 PM 33.2339 -84.1170 140° Southeast  Level FlightAware Approximate
Thu 04:45:41 PM 33.3578 -84.2503 170° South 303 349 10,700  Level Atlanta Center
Thu 04:46:00 PM 33.1502 -84.0334 140° Southeast  Level FlightAware Approximate
Thu 04:46:41 PM 33.2786 -84.1706 140° Southeast 354 407 13,900  Level Atlanta Center
Thu 04:47:41 PM 33.1972 -84.0886 140° Southeast 370 426 16,300 2,300 Climbing Atlanta Center
Thu 04:48:41 PM 33.1139 -84.0042 140° Southeast 388 447 18,500 2,150 Climbing Atlanta Center
Thu 04:49:41 PM 33.0406 -83.9025 131° Southeast 398 458 20,600 1,900 Climbing Atlanta Center
Thu 04:50:41 PM 32.9986 -83.7664 110° East 409 471 22,300 1,200 Climbing Atlanta Center
Thu 04:51:41 PM 32.9525 -83.6303 112° Southeast 423 487 23,000 350 Climbing Atlanta Center
Thu 04:52:41 PM 32.9058 -83.4847 111° Southeast 446 513 23,000  Level Atlanta Center
Thu 04:53:41 PM 32.8572 -83.3414 112° Southeast 459 528 23,000  Level Atlanta Center
Thu 04:54:41 PM 32.8083 -83.1936 111° Southeast 464 534 23,000  Level Atlanta Center
Thu 04:55:41 PM 32.7633 -83.0558 111° Southeast 464 534 23,000  Level Atlanta Center
Thu 04:56:41 PM 32.7142 -82.9131 112° Southeast 464 534 23,000  Level Atlanta Center
Thu 04:57:41 PM 32.6689 -82.7706 111° Southeast 464 534 23,000  Level Atlanta Center
Thu 04:58:41 PM 32.6214 -82.6306 112° Southeast 464 534 23,000 -700 Level Atlanta Center
Thu 04:59:41 PM 32.5739 -82.4908 112° Southeast 458 527 21,600 -2,033 Descending Atlanta Center
Thu 05:01:44 PM 32.4842 -82.2253 112° Southeast 435 501 16,800 -2,295 Descending Jacksonville Center
Thu 05:02:44 PM 32.4417 -82.1047 113° Southeast 410 472 14,600 -1,900 Descending Jacksonville Center
Thu 05:03:44 PM 32.4033 -81.9944 112° Southeast 378 435 13,000 -800 Descending Jacksonville Center
Thu 05:04:44 PM 32.3694 -81.8989 113° Southeast 353 406 13,000 -650 Level Jacksonville Center
Thu 05:05:44 PM 32.3308 -81.7861 112° Southeast 353 406 11,700 -1,500 Descending Jacksonville Center
Thu 05:06:44 PM 32.2758 -81.7106 131° Southeast 305 351 10,000 -1,500 Descending Jacksonville Center
Thu 05:07:44 PM 32.2253 -81.6547 137° Southeast 262 302 8,700 -1,550 Descending Jacksonville Center
Thu 05:08:44 PM 32.1767 -81.6017 137° Southeast 246 283 6,900 -2,000 Descending Jacksonville Center
Thu 05:09:44 PM 32.1383 -81.5408 127° Southeast 229 264 4,700 -1,950 Descending Jacksonville Center
Thu 05:10:44 PM 32.1189 -81.4722 108° East 219 252 3,000 -1,700 Descending Jacksonville Center

Login

Don't have an account? Register now (free) for customized features, flight alerts, and more!